Time;durP1;ratioP1;P1;durP2;ratioP2;P2;SDS_P1;SDS_P2;PMS_P1;PMS_P2;Temp;Humidity;BMP_temperature;BMP_pressure;BME280_temperature;BME280_humidity;BME280_pressure;Samples;Min_cycle;Max_cycle;Signal;HPM_P1;HPM_P2
2022/03/23 00:01:09;;;;;;;24.98;12.93;;;;;;;5.61;47.64;102037.34;5569249;32;34115;-64
2022/03/23 00:04:13;;;;;;;26.25;12.88;;;;;;;5.41;47.89;102044.78;5569288;32;34573;-65
2022/03/23 00:07:16;;;;;;;26.60;12.32;;;;;;;5.47;48.02;102041.78;5555358;32;35324;-65
2022/03/23 00:10:18;;;;;;;28.08;14.68;;;;;;;5.82;47.82;102036.91;5555332;32;33972;-65
2022/03/23 00:13:21;;;;;;;27.00;14.25;;;;;;;6.01;48.29;102034.84;5568798;32;33926;-65
2022/03/23 00:16:24;;;;;;;26.27;14.00;;;;;;;5.98;48.44;102035.03;5568869;32;33941;-65
2022/03/23 00:19:27;;;;;;;29.90;14.07;;;;;;;5.97;48.29;102039.47;5568802;32;34008;-65
2022/03/23 00:22:30;;;;;;;31.33;14.60;;;;;;;5.72;49.25;102031.38;5542314;32;32865;-65
2022/03/23 00:25:32;;;;;;;26.33;14.43;;;;;;;5.60;48.63;102029.53;5554927;32;33981;-65
2022/03/23 00:28:37;;;;;;;28.77;14.20;;;;;;;5.39;49.28;102023.78;5554884;32;33939;-66
2022/03/23 00:31:40;;;;;;;26.15;12.75;;;;;;;5.49;49.12;102022.28;5568466;32;34112;-65
2022/03/23 00:34:42;;;;;;;24.58;12.88;;;;;;;5.43;48.64;102022.66;5568481;32;33914;-65
2022/03/23 00:37:46;;;;;;;24.30;12.85;;;;;;;5.19;49.37;102025.00;5568395;32;34100;-65
2022/03/23 00:40:49;;;;;;;25.52;12.82;;;;;;;5.00;50.04;102027.06;5568351;32;33873;-65
2022/03/23 00:43:51;;;;;;;22.70;12.80;;;;;;;4.99;50.32;102020.09;5568230;32;34160;-65
2022/03/23 00:46:54;;;;;;;24.87;13.20;;;;;;;4.93;50.24;102025.75;5554570;32;34059;-65
2022/03/23 00:49:57;;;;;;;27.45;12.82;;;;;;;5.06;50.38;102020.59;5568146;32;33897;-65
2022/03/23 00:53:00;;;;;;;30.52;12.95;;;;;;;4.89;50.49;102028.66;5568117;32;33920;-65
2022/03/23 00:56:04;;;;;;;29.00;12.43;;;;;;;4.82;51.19;102009.75;5568087;32;33998;-65
2022/03/23 00:59:07;;;;;;;28.15;13.32;;;;;;;4.74;50.96;102017.28;5568035;32;34624;-65
2022/03/23 01:02:10;;;;;;;24.90;12.77;;;;;;;4.90;51.00;102014.56;5557432;32;34815;-65
2022/03/23 01:05:15;;;;;;;23.45;13.25;;;;;;;4.90;50.08;102015.41;5570989;32;33963;-65
2022/03/23 01:08:18;;;;;;;29.25;12.88;;;;;;;4.92;49.97;102013.53;5557582;32;33922;-65
2022/03/23 01:11:21;;;;;;;24.35;13.10;;;;;;;4.81;50.03;102015.94;5570943;32;33977;-65
2022/03/23 01:14:25;;;;;;;27.55;12.32;;;;;;;4.88;49.26;102011.19;5557202;32;34644;-65
2022/03/23 01:17:28;;;;;;;24.75;12.05;;;;;;;4.73;48.92;102013.78;5570849;32;34041;-65
2022/03/23 01:20:31;;;;;;;24.25;12.50;;;;;;;5.06;47.73;102005.66;5570807;32;34247;-65
2022/03/23 01:23:34;;;;;;;21.37;11.80;;;;;;;4.95;47.76;102009.87;5557190;32;34759;-65
2022/03/23 01:26:37;;;;;;;22.85;12.32;;;;;;;4.63;49.13;102012.63;5557146;32;34814;-65
2022/03/23 01:29:40;;;;;;;23.50;11.63;;;;;;;4.69;49.66;102007.03;5570641;32;35244;-65
2022/03/23 01:32:44;;;;;;;29.25;11.63;;;;;;;4.77;48.99;102009.19;5570565;32;34835;-65
2022/03/23 01:35:47;;;;;;;25.58;12.70;;;;;;;4.77;48.82;102001.31;5570826;32;34009;-65
2022/03/23 01:38:51;;;;;;;24.48;11.88;;;;;;;4.65;49.14;102005.47;5570688;32;33998;-65
2022/03/23 01:41:54;;;;;;;24.20;12.35;;;;;;;4.74;48.71;102004.13;5570693;32;33933;-65
2022/03/23 01:44:56;;;;;;;23.70;12.37;;;;;;;4.87;48.59;102004.22;5570715;32;34069;-65
2022/03/23 01:47:59;;;;;;;19.92;11.32;;;;;;;4.91;48.60;102001.31;5570546;32;34094;-65
2022/03/23 01:51:02;;;;;;;21.70;13.00;;;;;;;4.56;49.81;102000.78;5570547;32;34007;-65
2022/03/23 01:54:05;;;;;;;21.85;10.43;;;;;;;4.43;50.24;101998.94;5570434;32;34263;-65
2022/03/23 01:57:10;;;;;;;22.65;11.35;;;;;;;4.49;49.92;101996.81;5570510;32;35356;-65
2022/03/23 02:00:16;;;;;;;22.95;11.27;;;;;;;4.53;48.75;101994.84;5570816;32;34643;-65
2022/03/23 02:03:21;;;;;;;21.60;10.68;;;;;;;4.61;48.24;101998.72;5570573;32;34586;-65
2022/03/23 02:06:24;;;;;;;22.37;10.98;;;;;;;4.43;48.39;102001.56;5570806;32;34066;-65
2022/03/23 02:09:28;;;;;;;20.37;10.90;;;;;;;4.42;48.54;101995.47;5570553;32;33592;-65
2022/03/23 02:12:31;;;;;;;22.60;10.88;;;;;;;4.46;48.61;101993.50;5570108;32;34652;-65
2022/03/23 02:15:34;;;;;;;21.77;10.80;;;;;;;4.39;48.72;101993.03;5570704;32;34687;-64
2022/03/23 02:18:36;;;;;;;27.08;11.68;;;;;;;4.27;48.98;101998.97;5570321;32;33992;-64
2022/03/23 02:21:46;;;;;;;19.00;10.57;;;;;;;4.12;49.90;101995.44;5570726;32;34628;-65
2022/03/23 02:24:50;;;;;;;24.53;11.87;;;;;;;3.91;50.32;102004.53;5570366;32;33895;-64
2022/03/23 02:27:54;;;;;;;20.48;10.75;;;;;;;3.97;49.76;101996.31;5570598;32;35186;-65
2022/03/23 02:30:58;;;;;;;23.08;11.82;;;;;;;4.43;48.33;101994.53;5570655;32;33904;-65
2022/03/23 02:34:02;;;;;;;21.40;12.37;;;;;;;4.56;47.88;101992.87;5570333;32;34074;-65
2022/03/23 02:37:05;;;;;;;22.55;10.88;;;;;;;4.63;47.95;101994.22;5570176;32;34657;-65
2022/03/23 02:40:09;;;;;;;22.20;11.82;;;;;;;4.37;48.70;101989.63;5570152;32;33977;-65
2022/03/23 02:43:13;;;;;;;21.45;11.00;;;;;;;4.23;49.59;101997.47;5570129;32;33999;-65
2022/03/23 02:46:18;;;;;;;21.98;10.85;;;;;;;4.05;49.80;101991.50;5570103;32;33957;-65
2022/03/23 02:49:22;;;;;;;22.17;10.80;;;;;;;4.23;48.50;101998.31;5569979;32;34402;-65
2022/03/23 02:52:24;;;;;;;23.02;10.52;;;;;;;4.22;48.76;101996.63;5570012;32;34012;-64
2022/03/23 03:03:01;;;;;;;21.02;11.90;;;;;;;4.92;46.54;101997.75;5529249;32;35159;-65
2022/03/23 03:06:04;;;;;;;23.62;11.35;;;;;;;4.79;47.27;101991.56;5529106;32;34151;-64
2022/03/23 03:09:07;;;;;;;24.35;11.57;;;;;;;4.72;46.95;102008.59;5568992;32;34060;-64
2022/03/23 03:12:11;;;;;;;21.92;11.68;;;;;;;4.38;47.88;101997.44;5569894;32;34249;-65
2022/03/23 03:15:15;;;;;;;23.48;10.95;;;;;;;4.20;48.66;102008.16;5569741;32;34536;-65
2022/03/23 03:18:20;;;;;;;23.02;10.85;;;;;;;4.06;48.86;102002.84;5570064;32;34593;-65
2022/03/23 03:21:23;;;;;;;22.10;11.45;;;;;;;4.27;48.35;101994.56;5555984;32;33971;-63
2022/03/23 03:24:25;;;;;;;22.10;11.43;;;;;;;4.03;48.97;101990.72;5568851;32;35312;-63
2022/03/23 03:27:31;;;;;;;20.58;11.25;;;;;;;3.84;49.75;101996.16;5556385;32;33977;-63
2022/03/23 03:30:34;;;;;;;21.87;11.95;;;;;;;3.75;50.51;101995.81;5569571;32;34614;-63
2022/03/23 03:33:38;;;;;;;20.52;10.90;;;;;;;3.70;50.96;101995.22;5569824;32;33973;-63
2022/03/23 03:36:41;;;;;;;18.58;10.40;;;;;;;3.64;51.56;101999.03;5569385;32;34808;-64
2022/03/23 03:39:43;;;;;;;18.52;10.73;;;;;;;3.68;51.74;101999.72;5555867;32;34325;-64
2022/03/23 03:42:46;;;;;;;21.73;11.15;;;;;;;3.55;51.79;101998.69;5555733;32;35247;-64
2022/03/23 03:45:49;;;;;;;21.02;10.38;;;;;;;3.53;52.37;102005.81;5569433;32;34517;-65
2022/03/23 03:48:52;;;;;;;21.50;10.27;;;;;;;3.52;52.38;102004.09;5569506;31;34730;-66
2022/03/23 03:51:55;;;;;;;21.70;10.20;;;;;;;3.49;52.24;102002.47;5569538;32;34371;-63
2022/03/23 03:54:57;;;;;;;20.33;11.48;;;;;;;3.46;52.33;101997.41;5569208;32;34055;-63
2022/03/23 03:58:00;;;;;;;20.62;10.93;;;;;;;3.55;52.30;102003.94;5569462;32;34530;-63
2022/03/23 04:01:03;;;;;;;21.70;11.40;;;;;;;3.49;52.55;102005.97;5569418;32;33976;-64
2022/03/23 04:04:07;;;;;;;21.77;10.90;;;;;;;3.61;52.25;102014.94;5569005;32;34421;-64
2022/03/23 04:07:09;;;;;;;21.05;10.48;;;;;;;3.43;52.88;102003.69;5569232;32;35451;-65
2022/03/23 04:10:21;;;;;;;22.83;11.00;;;;;;;3.27;53.38;102004.56;5556193;32;34640;-64
2022/03/23 04:13:24;;;;;;;21.58;11.80;;;;;;;3.22;53.79;102011.84;5555595;32;34586;-64
2022/03/23 04:16:27;;;;;;;21.25;11.52;;;;;;;4.22;52.11;102003.66;5568684;32;34666;-63
2022/03/23 04:19:34;;;;;;;22.80;11.00;;;;;;;3.83;53.26;102004.09;5569074;32;34036;-64
2022/03/23 04:22:41;;;;;;;20.80;11.18;;;;;;;3.53;54.13;102011.91;5568689;32;33941;-63
2022/03/23 04:25:43;;;;;;;22.77;12.23;;;;;;;3.44;54.52;102015.84;5568682;32;34059;-64
2022/03/23 04:28:46;;;;;;;22.80;11.55;;;;;;;3.21;55.58;102018.84;5568539;32;34299;-64
2022/03/23 04:31:49;;;;;;;25.25;10.95;;;;;;;3.08;56.13;102016.97;5568538;32;33898;-64
2022/03/23 04:34:52;;;;;;;19.37;10.57;;;;;;;2.94;56.87;102015.91;5570020;32;33985;-65
2022/03/23 04:37:56;;;;;;;27.42;11.73;;;;;;;3.18;56.97;102015.56;5571341;32;34785;-64
2022/03/23 04:40:59;;;;;;;24.77;11.50;;;;;;;3.28;57.14;102019.38;5571182;32;33954;-64
2022/03/23 04:44:01;;;;;;;18.42;10.38;;;;;;;3.12;57.47;102021.97;5571159;32;34685;-64
2022/03/23 04:47:05;;;;;;;21.77;11.02;;;;;;;3.15;57.66;102015.72;5571137;32;34377;-63
2022/03/23 04:50:10;;;;;;;23.05;10.75;;;;;;;3.03;57.99;102023.28;5570984;32;34109;-64
2022/03/23 04:53:13;;;;;;;24.90;10.73;;;;;;;2.97;57.36;102010.50;5571180;32;33984;-63
2022/03/23 04:56:16;;;;;;;20.02;9.60;;;;;;;3.18;55.84;102021.66;5570916;32;34359;-63
2022/03/23 04:59:19;;;;;;;23.45;10.00;;;;;;;3.53;54.00;102022.41;5570959;32;34030;-63
2022/03/23 05:02:22;;;;;;;26.70;10.18;;;;;;;3.89;52.18;102035.28;5571239;32;34246;-63
2022/03/23 05:05:25;;;;;;;24.48;10.68;;;;;;;4.04;51.96;102025.72;5570947;32;34327;-63
2022/03/23 05:08:27;;;;;;;25.55;10.57;;;;;;;4.05;51.54;102030.03;5570922;32;35459;-63
2022/03/23 05:11:31;;;;;;;27.42;11.07;;;;;;;4.15;51.17;102033.84;5570743;32;33940;-64
2022/03/23 05:14:34;;;;;;;21.95;10.57;;;;;;;4.36;50.98;102035.22;5571226;32;34258;-63
2022/03/23 05:17:38;;;;;;;19.25;10.43;;;;;;;4.18;53.22;102029.25;5570854;32;34623;-63
2022/03/23 05:20:40;;;;;;;21.02;10.05;;;;;;;4.22;53.41;102043.91;5570765;32;34051;-63
2022/03/23 05:23:44;;;;;;;21.20;10.70;;;;;;;4.33;52.92;102035.41;5570739;32;34052;-63
2022/03/23 05:26:46;;;;;;;23.23;10.70;;;;;;;4.40;52.81;102035.94;5570704;32;33964;-63
2022/03/23 05:29:49;;;;;;;18.30;10.60;;;;;;;4.37;52.77;102031.69;5570469;32;33980;-63
2022/03/23 05:32:52;;;;;;;19.60;8.98;;;;;;;4.41;53.18;102034.97;5570614;32;33986;-63
2022/03/23 05:35:54;;;;;;;25.00;10.07;;;;;;;4.36;53.08;102045.75;5570335;32;34067;-63
2022/03/23 05:38:57;;;;;;;21.75;9.45;;;;;;;4.41;53.19;102033.19;5570445;32;34728;-63
2022/03/23 05:42:00;;;;;;;22.67;10.40;;;;;;;4.56;52.62;102040.19;5571067;32;34004;-63
2022/03/23 05:45:03;;;;;;;21.08;9.65;;;;;;;4.52;52.50;102033.44;5569731;32;34460;-63
2022/03/23 05:48:09;;;;;;;19.25;9.45;;;;;;;4.59;52.04;102036.56;5570749;32;35201;-64
2022/03/23 05:51:11;;;;;;;21.10;9.18;;;;;;;4.68;51.46;102041.28;5570451;32;34123;-63
2022/03/23 05:54:14;;;;;;;20.52;9.77;;;;;;;4.78;50.70;102045.91;5570475;32;34244;-64
2022/03/23 05:57:17;;;;;;;21.25;9.88;;;;;;;4.80;50.13;102046.66;5570649;32;34590;-64
2022/03/23 06:00:20;;;;;;;15.15;8.80;;;;;;;4.93;49.10;102041.53;5570416;32;33919;-62
2022/03/23 06:03:25;;;;;;;20.73;8.88;;;;;;;4.97;48.80;102045.66;5570453;32;33962;-65
2022/03/23 06:06:28;;;;;;;21.60;9.70;;;;;;;4.98;48.53;102041.25;5570396;32;33997;-64
2022/03/23 06:09:31;;;;;;;19.12;9.32;;;;;;;5.11;48.19;102039.56;5556763;32;34154;-63
2022/03/23 06:12:34;;;;;;;20.40;9.70;;;;;;;5.25;47.24;102040.44;5570534;32;34023;-64
2022/03/23 06:15:37;;;;;;;20.12;9.02;;;;;;;5.40;47.21;102040.44;5570074;32;35330;-64
2022/03/23 06:18:40;;;;;;;20.10;9.20;;;;;;;5.65;45.64;102035.34;5569880;32;34136;-64
2022/03/23 06:21:43;;;;;;;25.12;9.95;;;;;;;5.79;46.05;102039.75;5570217;32;35349;-64
2022/03/23 06:24:46;;;;;;;16.00;8.73;;;;;;;6.04;44.64;102035.50;5570485;32;33913;-63
2022/03/23 06:27:49;;;;;;;23.02;9.80;;;;;;;6.45;42.63;102032.81;5569855;32;34714;-63
2022/03/23 06:30:52;;;;;;;23.75;9.63;;;;;;;7.10;41.40;102035.47;5569948;32;34063;-63
2022/03/23 06:33:55;;;;;;;85.45;38.55;;;;;;;7.58;40.39;102047.03;5569523;32;33890;-63
2022/03/23 06:36:58;;;;;;;20.25;8.65;;;;;;;8.29;38.57;102055.12;5569636;32;34746;-63
2022/03/23 06:40:01;;;;;;;23.30;10.50;;;;;;;9.20;36.42;102034.09;5569700;32;34229;-63
2022/03/23 06:43:05;;;;;;;28.58;10.27;;;;;;;9.26;35.70;102033.66;5569142;32;33996;-63
2022/03/23 06:46:08;;;;;;;22.08;9.73;;;;;;;9.64;34.86;102035.94;5569977;32;33929;-63
2022/03/23 06:49:12;;;;;;;21.87;9.60;;;;;;;9.50;34.52;102044.13;5569708;32;33922;-63
2022/03/23 06:52:16;;;;;;;18.20;8.90;;;;;;;10.29;33.70;102032.47;5569608;32;34134;-63
2022/03/23 06:55:19;;;;;;;22.33;9.02;;;;;;;10.76;32.39;102040.00;5569567;32;33958;-64
2022/03/23 06:58:22;;;;;;;25.52;9.57;;;;;;;11.18;32.08;102034.69;5554667;32;34349;-64
2022/03/23 07:01:25;;;;;;;29.80;9.90;;;;;;;12.05;30.98;102043.87;5569475;32;34612;-64
2022/03/23 07:04:27;;;;;;;18.10;9.10;;;;;;;12.50;29.64;102041.53;5569419;32;34261;-63
2022/03/23 07:07:30;;;;;;;18.62;9.15;;;;;;;12.73;29.25;102029.59;5569570;32;34114;-64
2022/03/23 07:10:37;;;;;;;22.00;9.98;;;;;;;13.34;28.13;102035.41;5569390;32;34102;-64
2022/03/23 07:13:40;;;;;;;17.45;9.27;;;;;;;12.82;29.00;102034.09;5569405;32;33963;-64
2022/03/23 07:16:43;;;;;;;21.35;9.27;;;;;;;13.41;28.57;102039.16;5569603;32;33964;-64
2022/03/23 07:19:46;;;;;;;22.48;10.18;;;;;;;13.23;29.00;102027.59;5569219;32;34383;-64
2022/03/23 07:22:49;;;;;;;22.23;9.55;;;;;;;13.54;28.97;102030.00;5569281;32;33951;-63
2022/03/23 07:25:52;;;;;;;23.67;10.55;;;;;;;13.61;28.27;102026.59;5569533;32;34383;-63
2022/03/23 07:28:56;;;;;;;26.95;10.80;;;;;;;14.15;28.02;102035.56;5569327;32;33936;-64
2022/03/23 07:31:58;;;;;;;23.77;10.60;;;;;;;14.97;27.32;102038.00;5569134;32;34319;-64
2022/03/23 07:35:01;;;;;;;23.58;10.45;;;;;;;15.08;27.17;102038.59;5569857;32;34058;-64
2022/03/23 07:38:04;;;;;;;19.37;9.93;;;;;;;15.47;26.47;102030.13;5569347;32;34754;-64
2022/03/23 07:41:07;;;;;;;22.77;10.15;;;;;;;15.75;25.50;102036.97;5555441;32;34168;-64
2022/03/23 07:44:11;;;;;;;16.98;9.57;;;;;;;15.40;25.70;102034.44;5568828;32;33952;-64
2022/03/23 07:47:15;;;;;;;21.70;9.55;;;;;;;16.21;25.42;102032.12;5555862;32;33955;-64
2022/03/23 07:50:17;;;;;;;20.90;9.95;;;;;;;16.65;24.38;102032.69;5568730;32;34637;-65
2022/03/23 07:53:20;;;;;;;23.75;10.68;;;;;;;18.38;22.25;102026.44;5569130;32;34422;-64
2022/03/23 07:56:23;;;;;;;25.48;10.70;;;;;;;17.32;22.90;102026.91;5568764;32;33933;-64
2022/03/23 07:59:26;;;;;;;29.73;11.40;;;;;;;18.10;22.83;102028.81;5568507;32;33882;-65
2022/03/23 08:02:29;;;;;;;17.30;9.50;;;;;;;19.28;21.33;102027.31;5568908;32;33909;-65
2022/03/23 08:05:37;;;;;;;22.08;10.60;;;;;;;19.87;20.40;102028.16;5555473;32;34649;-66
2022/03/23 08:08:40;;;;;;;19.55;10.68;;;;;;;21.37;19.03;102027.94;5555326;32;33922;-66
2022/03/23 08:11:43;;;;;;;18.85;10.32;;;;;;;20.27;19.87;102032.97;5557278;32;34501;-65
2022/03/23 08:14:46;;;;;;;26.00;9.95;;;;;;;21.15;19.38;102029.03;5570898;32;34259;-64
2022/03/23 08:17:54;;;;;;;17.83;10.30;;;;;;;22.60;17.81;102032.34;5571193;32;33960;-64
2022/03/23 08:20:56;;;;;;;19.23;10.50;;;;;;;20.61;19.42;102028.78;5571241;32;34645;-64
2022/03/23 08:23:59;;;;;;;18.58;10.13;;;;;;;22.18;18.59;102033.50;5557559;32;34396;-66
2022/03/23 08:27:02;;;;;;;23.10;10.45;;;;;;;21.40;18.38;102021.28;5571107;32;34647;-66
2022/03/23 08:30:07;;;;;;;22.25;10.85;;;;;;;21.00;19.39;102015.63;5570988;31;34005;-65
2022/03/23 08:33:11;;;;;;;21.20;10.50;;;;;;;23.07;17.42;102020.50;5570972;32;34057;-65
2022/03/23 08:36:14;;;;;;;19.80;10.63;;;;;;;23.68;17.13;102020.97;5570857;32;33964;-65
2022/03/23 08:39:16;;;;;;;19.60;10.05;;;;;;;23.59;17.00;102014.13;5570954;32;34095;-65
2022/03/23 08:42:19;;;;;;;22.25;10.10;;;;;;;23.54;16.66;102008.53;5571122;32;34240;-65
2022/03/23 08:45:22;;;;;;;19.55;10.18;;;;;;;23.05;17.30;102006.31;5570793;32;34627;-66
2022/03/23 08:48:25;;;;;;;21.83;10.05;;;;;;;24.44;16.89;102008.31;5570832;32;33898;-66
2022/03/23 08:51:28;;;;;;;22.30;10.40;;;;;;;24.88;15.67;102006.50;5570930;32;33919;-66
2022/03/23 08:54:34;;;;;;;15.10;10.15;;;;;;;25.29;15.33;102004.00;5570964;32;34019;-66
2022/03/23 08:57:37;;;;;;;19.95;9.60;;;;;;;24.59;16.34;102007.97;5570937;32;33930;-65
2022/03/23 09:00:41;;;;;;;18.33;10.07;;;;;;;22.03;18.04;102006.63;5571041;32;33908;-66
2022/03/23 09:03:44;;;;;;;23.83;10.82;;;;;;;19.75;19.87;102006.25;5570961;32;33866;-66
2022/03/23 09:06:47;;;;;;;18.52;9.25;;;;;;;19.81;19.97;102000.13;5570750;32;34024;-66
2022/03/23 09:09:50;;;;;;;28.20;9.75;;;;;;;19.20;20.84;101995.13;5570881;32;34265;-66
2022/03/23 09:12:53;;;;;;;16.50;9.50;;;;;;;18.04;21.77;101992.75;5570706;32;34740;-65
2022/03/23 09:15:56;;;;;;;16.33;9.20;;;;;;;17.15;23.51;101992.25;5570575;32;35322;-65
2022/03/23 09:19:00;;;;;;;20.45;10.15;;;;;;;16.82;23.65;101984.28;5570749;32;34412;-65
2022/03/23 09:22:03;;;;;;;18.52;10.30;;;;;;;16.68;23.83;101986.78;5570225;32;33986;-65
2022/03/23 09:25:13;;;;;;;22.15;11.10;;;;;;;16.51;24.20;101986.75;5570706;32;34106;-65
2022/03/23 09:28:16;;;;;;;24.42;10.10;;;;;;;16.53;24.21;101982.09;5570462;31;34589;-65
2022/03/23 09:31:19;;;;;;;18.48;8.75;;;;;;;16.24;24.82;101978.22;5556789;32;34256;-65
2022/03/23 09:34:21;;;;;;;20.70;8.88;;;;;;;15.84;24.94;101981.63;5570341;32;33941;-65
2022/03/23 09:40:52;;;;;;;20.92;8.90;;;;;;;15.68;24.98;101978.94;5570350;32;34106;-64
2022/03/23 09:43:55;;;;;;;20.27;8.93;;;;;;;15.62;24.74;101975.91;5569999;32;34825;-64
2022/03/23 09:46:57;;;;;;;29.10;10.48;;;;;;;15.56;25.25;101975.69;5556528;32;34639;-64
2022/03/23 09:50:00;;;;;;;20.95;9.55;;;;;;;15.55;25.47;101972.19;5570195;32;33987;-65
2022/03/23 09:53:03;;;;;;;21.48;7.72;;;;;;;15.67;25.11;101969.22;5570143;32;33939;-64
2022/03/23 09:56:06;;;;;;;14.85;6.90;;;;;;;15.73;24.75;101963.22;5556416;32;34344;-65
2022/03/23 09:59:09;;;;;;;12.77;7.65;;;;;;;15.91;23.88;101955.91;5570310;32;33860;-64
2022/03/23 10:02:40;;;;;;;19.17;8.40;;;;;;;16.24;24.05;101957.62;5556687;32;34609;-64
2022/03/23 10:06:05;;;;;;;16.73;8.00;;;;;;;15.82;24.66;101948.87;5570098;32;35439;-64
2022/03/23 10:09:28;;;;;;;15.07;8.10;;;;;;;16.02;24.25;101948.37;5570085;32;33917;-64
2022/03/23 10:13:17;;;;;;;19.05;8.10;;;;;;;16.09;24.12;101951.25;5556859;32;34019;-63
2022/03/23 10:16:49;;;;;;;14.18;7.47;;;;;;;16.02;24.61;101951.06;5570105;32;34325;-65
2022/03/23 10:19:52;;;;;;;17.00;7.82;;;;;;;16.18;23.85;101942.22;5569847;32;34024;-66
2022/03/23 10:22:56;;;;;;;22.42;7.50;;;;;;;16.02;24.04;101943.03;5569742;32;35235;-65
2022/03/23 10:26:11;;;;;;;17.90;7.70;;;;;;;16.29;23.58;101933.88;5569785;32;33964;-65
2022/03/23 10:29:23;;;;;;;18.17;7.97;;;;;;;16.32;23.58;101927.31;5550980;32;170300;-65
2022/03/23 10:32:36;;;;;;;14.63;7.87;;;;;;;16.33;23.63;101929.00;5570209;32;33907;-65
2022/03/23 10:35:42;;;;;;;16.10;7.30;;;;;;;16.45;23.31;101917.81;5560471;32;34396;-64
2022/03/23 10:38:45;;;;;;;16.00;7.43;;;;;;;16.47;23.55;101921.13;5570174;32;33952;-65
2022/03/23 10:41:59;;;;;;;14.57;7.18;;;;;;;16.43;23.85;101914.44;5569889;32;34645;-65
2022/03/23 10:45:16;;;;;;;16.00;7.45;;;;;;;16.60;23.54;101912.63;5569855;32;35516;-65
2022/03/23 10:48:19;;;;;;;15.13;7.22;;;;;;;16.79;23.03;101901.53;5569783;32;34948;-66
2022/03/23 10:51:31;;;;;;;18.25;7.82;;;;;;;16.84;22.88;101898.34;5570219;32;34454;-64
2022/03/23 10:54:33;;;;;;;19.33;7.55;;;;;;;17.00;22.58;101887.53;5570498;32;34763;-63
2022/03/23 10:57:44;;;;;;;14.60;7.45;;;;;;;16.95;22.64;101893.44;5570526;32;34005;-64
2022/03/23 11:00:48;;;;;;;21.08;7.95;;;;;;;17.22;22.48;101888.66;5569751;32;33970;-64
2022/03/23 11:03:51;;;;;;;13.43;6.72;;;;;;;19.26;20.80;101890.28;5555765;32;33946;-65
2022/03/23 11:06:54;;;;;;;20.45;6.40;;;;;;;22.48;17.14;101872.53;5569561;32;35255;-65
2022/03/23 11:16:50;;;;;;;11.60;6.20;;;;;;;28.04;12.61;101861.38;5569906;32;34932;-65
2022/03/23 11:19:56;;;;;;;12.07;5.82;;;;;;;27.69;12.22;101854.50;5569678;32;35427;-65
2022/03/23 11:23:15;;;;;;;9.73;5.37;;;;;;;27.98;11.69;101861.56;5569521;32;34015;-66
2022/03/23 11:26:19;;;;;;;15.05;6.72;;;;;;;31.00;10.36;101851.44;5569625;32;33422;-66
2022/03/23 11:29:22;;;;;;;11.23;6.18;;;;;;;32.94;9.30;101851.22;5569448;32;33945;-66
2022/03/23 11:32:33;;;;;;;9.85;6.00;;;;;;;32.53;9.29;101850.53;5569514;32;33996;-66
2022/03/23 11:35:40;;;;;;;13.52;6.28;;;;;;;31.82;9.66;101837.66;5569535;32;34595;-65
2022/03/23 11:38:43;;;;;;;10.20;6.43;;;;;;;30.67;10.14;101841.69;5571562;32;34053;-65
2022/03/23 11:41:48;;;;;;;14.15;6.35;;;;;;;30.35;10.35;101828.06;5569114;32;34051;-67
2022/03/23 11:44:51;;;;;;;12.37;5.82;;;;;;;29.80;10.89;101823.81;5567962;32;34253;-66
2022/03/23 11:48:01;;;;;;;12.68;5.70;;;;;;;32.27;9.13;101822.28;5568575;32;34044;-66
2022/03/23 11:51:42;;;;;;;11.12;5.70;;;;;;;30.99;9.77;101814.97;5568768;32;34085;-66
2022/03/23 11:55:37;;;;;;;11.80;6.05;;;;;;;31.27;9.81;101816.47;5568511;32;35205;-66
2022/03/23 11:58:40;;;;;;;13.25;4.50;;;;;;;33.42;8.93;101800.09;5543020;32;33796;-67
2022/03/23 12:01:43;;;;;;;8.70;4.15;;;;;;;35.76;7.00;101794.34;5569087;32;34590;-67
2022/03/23 12:04:46;;;;;;;7.97;4.37;;;;;;;35.92;6.51;101792.16;5568445;32;34642;-67
2022/03/23 12:07:49;;;;;;;16.20;4.95;;;;;;;36.02;6.46;101789.19;5555054;32;33880;-67
2022/03/23 12:10:52;;;;;;;13.80;5.47;;;;;;;31.94;8.46;101782.50;5568386;32;34083;-67
2022/03/23 12:13:56;;;;;;;9.70;5.15;;;;;;;30.95;9.50;101780.97;5554654;32;34684;-67
2022/03/23 12:17:01;;;;;;;20.70;5.00;;;;;;;36.05;7.14;101774.75;5568354;32;34559;-67
2022/03/23 12:20:17;;;;;;;13.15;5.78;;;;;;;38.67;6.17;101772.37;5568402;32;33983;-68
2022/03/23 12:23:30;;;;;;;11.23;5.15;;;;;;;31.08;9.32;101765.97;5568250;32;34942;-67
2022/03/23 12:26:43;;;;;;;8.02;5.28;;;;;;;33.26;8.04;101755.37;5568286;32;34100;-67
2022/03/23 12:29:49;;;;;;;9.32;5.20;;;;;;;34.20;7.48;101761.44;5567979;32;34651;-67
2022/03/23 12:32:57;;;;;;;11.55;5.40;;;;;;;31.58;8.81;101747.94;5568394;32;34413;-67
2022/03/23 12:36:02;;;;;;;8.05;4.75;;;;;;;32.10;8.48;101742.09;5567640;32;34592;-67
2022/03/23 12:39:06;;;;;;;9.60;4.93;;;;;;;32.22;8.43;101738.00;5567784;32;34609;-66
2022/03/23 12:42:12;;;;;;;11.27;5.50;;;;;;;36.56;6.54;101739.47;5568002;32;34264;-68
2022/03/23 12:45:28;;;;;;;10.90;5.43;;;;;;;37.13;6.11;101739.09;5567867;32;33899;-67
2022/03/23 12:58:42;;;;;;;9.00;5.10;;;;;;;32.86;7.70;101720.69;5570733;32;34636;-67
2022/03/23 13:01:46;;;;;;;8.55;4.97;;;;;;;31.36;8.61;101727.06;5571031;32;33925;-67
2022/03/23 13:04:50;;;;;;;10.80;4.82;;;;;;;31.65;8.44;101712.84;5557118;32;34071;-67
2022/03/23 13:07:53;;;;;;;9.80;5.12;;;;;;;33.98;7.37;101704.94;5570692;32;35210;-67
2022/03/23 13:11:00;;;;;;;9.20;4.70;;;;;;;32.49;7.93;101698.31;5557218;32;34105;-66
2022/03/23 13:14:04;;;;;;;12.15;5.47;;;;;;;32.44;8.05;101701.91;5570824;32;35456;-67
2022/03/23 13:17:06;;;;;;;9.82;5.60;;;;;;;31.90;8.08;101696.31;5570531;32;33749;-67
2022/03/23 13:20:14;;;;;;;11.45;5.37;;;;;;;32.84;7.47;101695.41;5570550;32;34097;-67
2022/03/23 13:23:19;;;;;;;10.88;4.82;;;;;;;34.79;6.58;101689.34;5570806;32;34145;-67
2022/03/23 13:26:26;;;;;;;9.52;4.62;;;;;;;34.21;7.02;101680.47;5569390;32;34191;-66
2022/03/23 13:29:29;;;;;;;9.48;4.97;;;;;;;34.83;6.48;101688.44;5570433;32;34765;-66
2022/03/23 13:32:33;;;;;;;8.93;4.40;;;;;;;32.23;7.71;101681.16;5570421;32;35307;-67
2022/03/23 13:35:43;;;;;;;10.55;5.22;;;;;;;31.55;8.05;101672.47;5570464;32;34843;-68
2022/03/23 13:38:49;;;;;;;11.00;4.68;;;;;;;31.34;8.34;101671.66;5570505;32;34152;-67
2022/03/23 13:45:13;;;;;;;12.20;5.07;;;;;;;31.87;8.03;101655.69;5570672;32;34075;-68
2022/03/23 13:48:18;;;;;;;13.50;5.15;;;;;;;31.28;8.62;101664.53;5570163;32;33971;-68
2022/03/23 13:51:21;;;;;;;19.80;5.22;;;;;;;31.37;8.79;101645.62;5556883;32;34076;-68
2022/03/23 13:54:25;;;;;;;12.98;5.30;;;;;;;35.46;6.40;101649.34;5570285;32;34757;-67
2022/03/23 13:57:29;;;;;;;10.00;4.93;;;;;;;35.64;6.40;101651.22;5570381;32;34850;-68
2022/03/23 14:00:33;;;;;;;8.77;4.80;;;;;;;37.73;5.24;101639.78;5569834;32;33983;-66
2022/03/23 14:03:36;;;;;;;9.30;4.95;;;;;;;37.68;5.55;101639.94;5569926;32;33967;-66
2022/03/23 14:06:51;;;;;;;7.53;4.10;;;;;;;39.06;4.67;101627.94;5569408;32;33991;-67
2022/03/23 14:09:57;;;;;;;9.95;4.40;;;;;;;37.87;5.00;101621.09;5570022;32;33968;-66
2022/03/23 14:13:02;;;;;;;7.22;4.50;;;;;;;36.48;5.76;101620.50;5554835;32;34538;-67
2022/03/23 14:16:10;;;;;;;9.27;4.20;;;;;;;37.42;5.39;101609.34;5569667;32;34033;-66
2022/03/23 14:19:14;;;;;;;9.82;4.47;;;;;;;36.21;5.77;101606.78;5569594;32;34668;-66
2022/03/23 14:22:25;;;;;;;10.23;5.15;;;;;;;33.19;7.02;101609.13;5569719;32;34129;-66
2022/03/23 14:25:28;;;;;;;8.43;4.80;;;;;;;31.10;8.04;101606.69;5569769;32;34032;-66
2022/03/23 14:28:31;;;;;;;11.18;4.93;;;;;;;29.95;8.45;101604.22;5569371;31;34098;-66
2022/03/23 14:31:40;;;;;;;8.90;4.55;;;;;;;31.29;8.09;101594.88;5569596;32;34024;-66
2022/03/23 14:34:47;;;;;;;9.75;4.22;;;;;;;29.66;8.57;101601.03;5556308;32;34724;-68
2022/03/23 14:37:54;;;;;;;8.70;4.87;;;;;;;31.10;7.84;101590.25;5569942;32;34160;-67
2022/03/23 14:41:00;;;;;;;10.35;4.53;;;;;;;32.96;7.19;101579.59;5569992;32;34525;-66
2022/03/23 14:44:03;;;;;;;11.75;4.60;;;;;;;29.03;8.91;101576.50;5569735;32;34013;-66